sensor_id;sensor_type;location;lat;lon;timestamp;P1;durP1;ratioP1;P2;durP2;ratioP2
817;SDS011;391;51.052;6.954;2023-05-10T00:01:27;5.50;;;5.00;;
817;SDS011;391;51.052;6.954;2023-05-10T00:03:31;6.97;;;6.30;;
817;SDS011;391;51.052;6.954;2023-05-10T00:05:34;6.13;;;5.53;;
817;SDS011;391;51.052;6.954;2023-05-10T00:07:39;6.60;;;5.97;;
817;SDS011;391;51.052;6.954;2023-05-10T00:09:46;7.10;;;6.40;;
817;SDS011;391;51.052;6.954;2023-05-10T00:11:49;7.43;;;6.67;;
817;SDS011;391;51.052;6.954;2023-05-10T00:13:53;6.90;;;6.30;;
817;SDS011;391;51.052;6.954;2023-05-10T00:15:56;7.67;;;6.97;;
817;SDS011;391;51.052;6.954;2023-05-10T00:18:00;8.53;;;7.63;;
817;SDS011;391;51.052;6.954;2023-05-10T00:20:04;8.97;;;7.97;;
817;SDS011;391;51.052;6.954;2023-05-10T00:22:08;7.87;;;7.07;;
817;SDS011;391;51.052;6.954;2023-05-10T00:24:13;7.17;;;6.47;;
817;SDS011;391;51.052;6.954;2023-05-10T00:26:16;9.30;;;8.40;;
817;SDS011;391;51.052;6.954;2023-05-10T00:28:26;8.50;;;7.60;;
817;SDS011;391;51.052;6.954;2023-05-10T00:30:31;7.37;;;6.67;;
817;SDS011;391;51.052;6.954;2023-05-10T00:32:36;7.10;;;6.40;;
817;SDS011;391;51.052;6.954;2023-05-10T00:34:39;8.50;;;7.70;;
817;SDS011;391;51.052;6.954;2023-05-10T00:36:43;8.00;;;7.20;;
817;SDS011;391;51.052;6.954;2023-05-10T00:38:46;10.40;;;8.13;;
817;SDS011;391;51.052;6.954;2023-05-10T00:40:51;10.07;;;9.00;;
817;SDS011;391;51.052;6.954;2023-05-10T00:43:00;8.80;;;7.03;;
817;SDS011;391;51.052;6.954;2023-05-10T00:45:05;8.77;;;7.90;;
817;SDS011;391;51.052;6.954;2023-05-10T00:47:10;8.47;;;7.67;;
817;SDS011;391;51.052;6.954;2023-05-10T00:49:13;10.20;;;8.50;;
817;SDS011;391;51.052;6.954;2023-05-10T00:51:17;8.40;;;7.60;;
817;SDS011;391;51.052;6.954;2023-05-10T00:53:21;10.27;;;9.17;;
817;SDS011;391;51.052;6.954;2023-05-10T00:55:24;8.93;;;8.03;;
817;SDS011;391;51.052;6.954;2023-05-10T00:57:29;8.77;;;7.97;;
817;SDS011;391;51.052;6.954;2023-05-10T00:59:33;10.37;;;9.23;;
817;SDS011;391;51.052;6.954;2023-05-10T01:01:37;8.90;;;7.80;;
817;SDS011;391;51.052;6.954;2023-05-10T01:03:41;9.13;;;7.90;;
817;SDS011;391;51.052;6.954;2023-05-10T01:05:44;9.33;;;8.10;;
817;SDS011;391;51.052;6.954;2023-05-10T01:07:47;11.13;;;9.17;;
817;SDS011;391;51.052;6.954;2023-05-10T01:09:51;8.53;;;7.67;;
817;SDS011;391;51.052;6.954;2023-05-10T01:11:54;8.97;;;7.93;;
817;SDS011;391;51.052;6.954;2023-05-10T01:14:00;7.77;;;7.03;;
817;SDS011;391;51.052;6.954;2023-05-10T01:16:05;8.63;;;7.80;;
817;SDS011;391;51.052;6.954;2023-05-10T01:18:09;8.73;;;7.83;;
817;SDS011;391;51.052;6.954;2023-05-10T01:20:13;8.33;;;7.53;;
817;SDS011;391;51.052;6.954;2023-05-10T01:22:33;9.83;;;8.37;;
817;SDS011;391;51.052;6.954;2023-05-10T01:25:03;11.10;;;9.07;;
817;SDS011;391;51.052;6.954;2023-05-10T01:27:36;8.20;;;7.40;;
817;SDS011;391;51.052;6.954;2023-05-10T01:32:37;9.00;;;7.90;;
817;SDS011;391;51.052;6.954;2023-05-10T01:34:47;7.73;;;6.93;;
817;SDS011;391;51.052;6.954;2023-05-10T01:37:01;8.37;;;7.07;;
817;SDS011;391;51.052;6.954;2023-05-10T01:39:09;8.03;;;7.10;;
817;SDS011;391;51.052;6.954;2023-05-10T01:41:19;9.27;;;7.40;;
817;SDS011;391;51.052;6.954;2023-05-10T01:43:33;7.20;;;6.50;;
817;SDS011;391;51.052;6.954;2023-05-10T01:45:47;9.23;;;7.07;;
817;SDS011;391;51.052;6.954;2023-05-10T01:48:01;7.97;;;6.67;;
817;SDS011;391;51.052;6.954;2023-05-10T01:50:10;7.80;;;6.33;;
817;SDS011;391;51.052;6.954;2023-05-10T01:52:18;8.27;;;7.37;;
817;SDS011;391;51.052;6.954;2023-05-10T01:54:25;6.87;;;6.23;;
817;SDS011;391;51.052;6.954;2023-05-10T01:56:31;6.90;;;6.20;;
817;SDS011;391;51.052;6.954;2023-05-10T01:58:37;5.33;;;4.80;;
817;SDS011;391;51.052;6.954;2023-05-10T02:00:44;6.13;;;5.63;;
817;SDS011;391;51.052;6.954;2023-05-10T02:02:50;5.90;;;5.30;;
817;SDS011;391;51.052;6.954;2023-05-10T02:04:57;6.27;;;5.67;;
817;SDS011;391;51.052;6.954;2023-05-10T02:07:02;4.40;;;4.00;;
817;SDS011;391;51.052;6.954;2023-05-10T02:09:06;4.60;;;3.83;;
817;SDS011;391;51.052;6.954;2023-05-10T02:11:12;3.83;;;3.53;;
817;SDS011;391;51.052;6.954;2023-05-10T02:13:17;6.03;;;4.40;;
817;SDS011;391;51.052;6.954;2023-05-10T02:15:22;4.33;;;3.93;;
817;SDS011;391;51.052;6.954;2023-05-10T02:17:27;6.40;;;5.33;;
817;SDS011;391;51.052;6.954;2023-05-10T02:19:33;5.60;;;5.13;;
817;SDS011;391;51.052;6.954;2023-05-10T02:21:40;4.87;;;4.40;;
817;SDS011;391;51.052;6.954;2023-05-10T02:23:45;3.80;;;3.50;;
817;SDS011;391;51.052;6.954;2023-05-10T02:25:51;4.43;;;3.30;;
817;SDS011;391;51.052;6.954;2023-05-10T02:27:57;3.90;;;3.20;;
817;SDS011;391;51.052;6.954;2023-05-10T02:30:03;5.70;;;4.40;;
817;SDS011;391;51.052;6.954;2023-05-10T02:32:10;5.40;;;3.77;;
817;SDS011;391;51.052;6.954;2023-05-10T02:34:14;3.60;;;3.30;;
817;SDS011;391;51.052;6.954;2023-05-10T02:36:20;4.10;;;3.40;;
817;SDS011;391;51.052;6.954;2023-05-10T02:38:25;3.67;;;3.37;;
817;SDS011;391;51.052;6.954;2023-05-10T02:40:31;3.43;;;3.13;;
817;SDS011;391;51.052;6.954;2023-05-10T02:42:36;4.47;;;4.07;;
817;SDS011;391;51.052;6.954;2023-05-10T02:44:41;3.40;;;3.10;;
817;SDS011;391;51.052;6.954;2023-05-10T02:46:46;3.27;;;3.00;;
817;SDS011;391;51.052;6.954;2023-05-10T02:48:50;4.70;;;3.40;;
817;SDS011;391;51.052;6.954;2023-05-10T02:50:53;2.70;;;2.50;;
817;SDS011;391;51.052;6.954;2023-05-10T02:52:59;3.20;;;2.90;;
817;SDS011;391;51.052;6.954;2023-05-10T02:55:06;3.43;;;3.13;;
817;SDS011;391;51.052;6.954;2023-05-10T02:57:14;3.07;;;2.77;;
817;SDS011;391;51.052;6.954;2023-05-10T02:59:21;3.40;;;3.10;;
817;SDS011;391;51.052;6.954;2023-05-10T03:01:24;3.60;;;3.20;;
817;SDS011;391;51.052;6.954;2023-05-10T03:03:28;3.10;;;2.80;;
817;SDS011;391;51.052;6.954;2023-05-10T03:05:31;4.00;;;3.70;;
817;SDS011;391;51.052;6.954;2023-05-10T03:07:37;2.97;;;2.77;;
817;SDS011;391;51.052;6.954;2023-05-10T03:09:41;4.57;;;3.00;;
817;SDS011;391;51.052;6.954;2023-05-10T03:11:49;4.50;;;3.63;;
817;SDS011;391;51.052;6.954;2023-05-10T03:14:04;3.90;;;3.50;;
817;SDS011;391;51.052;6.954;2023-05-10T03:16:14;3.70;;;3.40;;
817;SDS011;391;51.052;6.954;2023-05-10T03:18:23;3.77;;;3.47;;
817;SDS011;391;51.052;6.954;2023-05-10T03:20:33;4.63;;;4.23;;
817;SDS011;391;51.052;6.954;2023-05-10T03:22:40;8.00;;;7.20;;
817;SDS011;391;51.052;6.954;2023-05-10T03:24:48;8.00;;;6.60;;
817;SDS011;391;51.052;6.954;2023-05-10T03:26:53;7.50;;;4.90;;
817;SDS011;391;51.052;6.954;2023-05-10T03:29:02;4.90;;;4.47;;
817;SDS011;391;51.052;6.954;2023-05-10T03:31:07;4.30;;;3.90;;
817;SDS011;391;51.052;6.954;2023-05-10T03:33:12;4.97;;;4.33;;
817;SDS011;391;51.052;6.954;2023-05-10T03:35:19;4.47;;;4.00;;
817;SDS011;391;51.052;6.954;2023-05-10T03:37:22;3.30;;;3.00;;
817;SDS011;391;51.052;6.954;2023-05-10T03:39:26;4.60;;;4.10;;
817;SDS011;391;51.052;6.954;2023-05-10T03:41:32;5.70;;;4.30;;
817;SDS011;391;51.052;6.954;2023-05-10T03:43:38;7.03;;;4.63;;
817;SDS011;391;51.052;6.954;2023-05-10T03:45:43;5.90;;;5.37;;
817;SDS011;391;51.052;6.954;2023-05-10T03:47:46;5.90;;;5.30;;
817;SDS011;391;51.052;6.954;2023-05-10T03:49:50;7.27;;;5.70;;
817;SDS011;391;51.052;6.954;2023-05-10T03:51:53;5.90;;;5.40;;
817;SDS011;391;51.052;6.954;2023-05-10T03:53:56;8.37;;;6.80;;
817;SDS011;391;51.052;6.954;2023-05-10T03:56:00;9.60;;;8.13;;
817;SDS011;391;51.052;6.954;2023-05-10T03:58:03;6.57;;;5.97;;
817;SDS011;391;51.052;6.954;2023-05-10T04:00:10;8.43;;;7.63;;
817;SDS011;391;51.052;6.954;2023-05-10T04:02:17;6.60;;;6.00;;
817;SDS011;391;51.052;6.954;2023-05-10T04:04:20;8.00;;;7.20;;
817;SDS011;391;51.052;6.954;2023-05-10T04:06:25;6.20;;;5.60;;
817;SDS011;391;51.052;6.954;2023-05-10T04:08:29;6.20;;;5.60;;
817;SDS011;391;51.052;6.954;2023-05-10T04:10:33;5.13;;;4.73;;
817;SDS011;391;51.052;6.954;2023-05-10T04:12:36;5.47;;;4.70;;
817;SDS011;391;51.052;6.954;2023-05-10T04:14:40;5.80;;;4.63;;
817;SDS011;391;51.052;6.954;2023-05-10T04:16:45;7.43;;;6.53;;
817;SDS011;391;51.052;6.954;2023-05-10T04:18:51;6.87;;;6.20;;
817;SDS011;391;51.052;6.954;2023-05-10T04:20:55;6.80;;;5.80;;
817;SDS011;391;51.052;6.954;2023-05-10T04:23:02;9.03;;;5.93;;
817;SDS011;391;51.052;6.954;2023-05-10T04:25:09;6.63;;;5.93;;
817;SDS011;391;51.052;6.954;2023-05-10T04:27:12;8.00;;;6.43;;
817;SDS011;391;51.052;6.954;2023-05-10T04:29:16;12.97;;;11.60;;
817;SDS011;391;51.052;6.954;2023-05-10T04:31:19;10.97;;;9.67;;
817;SDS011;391;51.052;6.954;2023-05-10T04:33:24;9.43;;;7.60;;
817;SDS011;391;51.052;6.954;2023-05-10T04:35:28;8.00;;;7.20;;
817;SDS011;391;51.052;6.954;2023-05-10T04:37:31;10.90;;;9.47;;
817;SDS011;391;51.052;6.954;2023-05-10T04:39:34;11.40;;;9.60;;
817;SDS011;391;51.052;6.954;2023-05-10T04:41:38;11.27;;;10.07;;
817;SDS011;391;51.052;6.954;2023-05-10T04:43:41;12.23;;;10.60;;
817;SDS011;391;51.052;6.954;2023-05-10T04:45:44;13.30;;;11.30;;
817;SDS011;391;51.052;6.954;2023-05-10T04:47:48;12.27;;;10.40;;
817;SDS011;391;51.052;6.954;2023-05-10T04:49:53;14.00;;;11.17;;
817;SDS011;391;51.052;6.954;2023-05-10T04:51:56;12.90;;;11.23;;
817;SDS011;391;51.052;6.954;2023-05-10T04:53:59;13.43;;;11.50;;
817;SDS011;391;51.052;6.954;2023-05-10T04:56:07;14.10;;;10.17;;
817;SDS011;391;51.052;6.954;2023-05-10T04:58:11;13.33;;;11.93;;
817;SDS011;391;51.052;6.954;2023-05-10T05:00:14;12.33;;;11.03;;
817;SDS011;391;51.052;6.954;2023-05-10T05:02:18;11.40;;;10.23;;
817;SDS011;391;51.052;6.954;2023-05-10T05:04:22;10.90;;;9.90;;
817;SDS011;391;51.052;6.954;2023-05-10T05:06:27;11.57;;;10.47;;
817;SDS011;391;51.052;6.954;2023-05-10T05:08:30;15.57;;;13.83;;
817;SDS011;391;51.052;6.954;2023-05-10T05:10:34;14.60;;;12.07;;
817;SDS011;391;51.052;6.954;2023-05-10T05:12:37;10.93;;;9.73;;
817;SDS011;391;51.052;6.954;2023-05-10T05:14:40;11.23;;;10.13;;
817;SDS011;391;51.052;6.954;2023-05-10T05:16:44;14.73;;;10.13;;
817;SDS011;391;51.052;6.954;2023-05-10T05:18:47;12.60;;;11.33;;
817;SDS011;391;51.052;6.954;2023-05-10T05:20:50;11.30;;;10.00;;
817;SDS011;391;51.052;6.954;2023-05-10T05:22:55;12.73;;;10.13;;
817;SDS011;391;51.052;6.954;2023-05-10T05:24:58;9.43;;;8.13;;
817;SDS011;391;51.052;6.954;2023-05-10T05:27:04;10.40;;;9.30;;
817;SDS011;391;51.052;6.954;2023-05-10T05:29:07;10.60;;;9.50;;
817;SDS011;391;51.052;6.954;2023-05-10T05:31:11;10.53;;;9.53;;
817;SDS011;391;51.052;6.954;2023-05-10T05:33:14;13.43;;;10.87;;
817;SDS011;391;51.052;6.954;2023-05-10T05:35:18;13.40;;;10.63;;
817;SDS011;391;51.052;6.954;2023-05-10T05:37:21;10.10;;;9.00;;
817;SDS011;391;51.052;6.954;2023-05-10T05:39:27;16.03;;;9.57;;
817;SDS011;391;51.052;6.954;2023-05-10T05:41:31;9.40;;;8.50;;
817;SDS011;391;51.052;6.954;2023-05-10T05:43:34;11.50;;;9.20;;
817;SDS011;391;51.052;6.954;2023-05-10T05:45:39;10.20;;;8.97;;
817;SDS011;391;51.052;6.954;2023-05-10T05:47:43;12.20;;;9.67;;
817;SDS011;391;51.052;6.954;2023-05-10T05:49:46;10.97;;;9.70;;
817;SDS011;391;51.052;6.954;2023-05-10T05:51:49;12.43;;;9.97;;
817;SDS011;391;51.052;6.954;2023-05-10T05:53:53;10.50;;;9.00;;
817;SDS011;391;51.052;6.954;2023-05-10T05:55:58;13.97;;;10.13;;
817;SDS011;391;51.052;6.954;2023-05-10T05:58:01;11.17;;;9.43;;
817;SDS011;391;51.052;6.954;2023-05-10T06:00:06;11.77;;;7.93;;
817;SDS011;391;51.052;6.954;2023-05-10T06:02:15;11.63;;;10.27;;
817;SDS011;391;51.052;6.954;2023-05-10T06:04:19;12.03;;;9.17;;
817;SDS011;391;51.052;6.954;2023-05-10T06:06:22;13.57;;;9.30;;
817;SDS011;391;51.052;6.954;2023-05-10T06:08:26;12.83;;;9.57;;
817;SDS011;391;51.052;6.954;2023-05-10T06:10:29;12.80;;;9.97;;
817;SDS011;391;51.052;6.954;2023-05-10T06:12:34;16.03;;;10.63;;
817;SDS011;391;51.052;6.954;2023-05-10T06:14:38;12.67;;;10.00;;
817;SDS011;391;51.052;6.954;2023-05-10T06:16:41;12.60;;;9.80;;
817;SDS011;391;51.052;6.954;2023-05-10T06:18:45;16.10;;;10.27;;
817;SDS011;391;51.052;6.954;2023-05-10T06:20:49;9.93;;;8.00;;
817;SDS011;391;51.052;6.954;2023-05-10T06:22:52;15.10;;;9.37;;
817;SDS011;391;51.052;6.954;2023-05-10T06:24:55;13.47;;;10.77;;
817;SDS011;391;51.052;6.954;2023-05-10T06:27:01;13.07;;;9.33;;
817;SDS011;391;51.052;6.954;2023-05-10T06:29:07;18.07;;;10.10;;
817;SDS011;391;51.052;6.954;2023-05-10T06:31:10;10.17;;;9.10;;
817;SDS011;391;51.052;6.954;2023-05-10T06:33:14;17.03;;;11.57;;
817;SDS011;391;51.052;6.954;2023-05-10T06:35:18;11.20;;;10.00;;
817;SDS011;391;51.052;6.954;2023-05-10T06:37:21;12.70;;;10.13;;
817;SDS011;391;51.052;6.954;2023-05-10T06:39:25;13.10;;;9.70;;
817;SDS011;391;51.052;6.954;2023-05-10T06:41:28;10.93;;;9.70;;
817;SDS011;391;51.052;6.954;2023-05-10T06:43:32;9.93;;;8.50;;
817;SDS011;391;51.052;6.954;2023-05-10T06:45:36;13.40;;;9.67;;
817;SDS011;391;51.052;6.954;2023-05-10T06:47:40;13.80;;;9.27;;
817;SDS011;391;51.052;6.954;2023-05-10T06:49:44;15.03;;;10.50;;
817;SDS011;391;51.052;6.954;2023-05-10T06:51:47;11.83;;;9.70;;
817;SDS011;391;51.052;6.954;2023-05-10T06:53:51;12.50;;;10.27;;
817;SDS011;391;51.052;6.954;2023-05-10T06:55:54;14.00;;;10.43;;
817;SDS011;391;51.052;6.954;2023-05-10T06:57:58;16.33;;;12.10;;
817;SDS011;391;51.052;6.954;2023-05-10T07:00:01;14.47;;;10.93;;
817;SDS011;391;51.052;6.954;2023-05-10T07:02:08;15.87;;;12.00;;
817;SDS011;391;51.052;6.954;2023-05-10T07:04:12;11.40;;;10.20;;
817;SDS011;391;51.052;6.954;2023-05-10T07:06:15;14.40;;;11.60;;
817;SDS011;391;51.052;6.954;2023-05-10T07:08:33;17.03;;;12.20;;
817;SDS011;391;51.052;6.954;2023-05-10T07:10:37;12.83;;;10.50;;
817;SDS011;391;51.052;6.954;2023-05-10T07:12:40;13.53;;;11.97;;
817;SDS011;391;51.052;6.954;2023-05-10T07:14:44;19.07;;;12.57;;
817;SDS011;391;51.052;6.954;2023-05-10T07:16:48;14.47;;;12.70;;
817;SDS011;391;51.052;6.954;2023-05-10T07:18:53;16.50;;;11.97;;
817;SDS011;391;51.052;6.954;2023-05-10T07:20:56;16.87;;;12.40;;
817;SDS011;391;51.052;6.954;2023-05-10T07:23:00;15.10;;;12.97;;
817;SDS011;391;51.052;6.954;2023-05-10T07:25:04;13.17;;;11.20;;
817;SDS011;391;51.052;6.954;2023-05-10T07:27:08;13.93;;;10.67;;
817;SDS011;391;51.052;6.954;2023-05-10T07:29:12;15.33;;;11.77;;
817;SDS011;391;51.052;6.954;2023-05-10T07:31:15;16.33;;;12.67;;
817;SDS011;391;51.052;6.954;2023-05-10T07:33:19;14.97;;;11.20;;
817;SDS011;391;51.052;6.954;2023-05-10T07:35:23;13.73;;;10.23;;
817;SDS011;391;51.052;6.954;2023-05-10T07:37:27;14.57;;;12.10;;
817;SDS011;391;51.052;6.954;2023-05-10T07:39:30;13.53;;;11.47;;
817;SDS011;391;51.052;6.954;2023-05-10T07:41:33;13.83;;;10.90;;
817;SDS011;391;51.052;6.954;2023-05-10T07:43:37;11.10;;;9.97;;
817;SDS011;391;51.052;6.954;2023-05-10T07:45:40;12.00;;;10.00;;
817;SDS011;391;51.052;6.954;2023-05-10T07:47:44;11.53;;;10.43;;
817;SDS011;391;51.052;6.954;2023-05-10T07:49:47;11.80;;;10.60;;
817;SDS011;391;51.052;6.954;2023-05-10T07:51:52;13.77;;;10.43;;
817;SDS011;391;51.052;6.954;2023-05-10T07:53:55;14.63;;;11.10;;
817;SDS011;391;51.052;6.954;2023-05-10T07:56:19;14.37;;;10.87;;
817;SDS011;391;51.052;6.954;2023-05-10T07:58:24;13.70;;;10.50;;
817;SDS011;391;51.052;6.954;2023-05-10T08:00:28;14.50;;;12.47;;
817;SDS011;391;51.052;6.954;2023-05-10T08:02:31;10.00;;;9.00;;
817;SDS011;391;51.052;6.954;2023-05-10T08:04:35;15.30;;;12.23;;
817;SDS011;391;51.052;6.954;2023-05-10T08:06:39;18.30;;;11.90;;
817;SDS011;391;51.052;6.954;2023-05-10T08:08:44;12.53;;;11.23;;
817;SDS011;391;51.052;6.954;2023-05-10T08:10:51;11.57;;;9.77;;
817;SDS011;391;51.052;6.954;2023-05-10T08:12:54;11.40;;;10.07;;
817;SDS011;391;51.052;6.954;2023-05-10T08:14:57;10.13;;;9.03;;
817;SDS011;391;51.052;6.954;2023-05-10T08:17:00;12.43;;;10.40;;
817;SDS011;391;51.052;6.954;2023-05-10T08:19:04;11.00;;;9.70;;
817;SDS011;391;51.052;6.954;2023-05-10T08:21:07;13.97;;;11.57;;
817;SDS011;391;51.052;6.954;2023-05-10T08:23:13;11.13;;;9.93;;
817;SDS011;391;51.052;6.954;2023-05-10T08:25:17;13.90;;;9.97;;
817;SDS011;391;51.052;6.954;2023-05-10T08:27:21;10.27;;;9.20;;
817;SDS011;391;51.052;6.954;2023-05-10T08:29:24;10.00;;;8.50;;
817;SDS011;391;51.052;6.954;2023-05-10T08:31:31;12.47;;;10.70;;
817;SDS011;391;51.052;6.954;2023-05-10T08:33:34;11.93;;;9.17;;
817;SDS011;391;51.052;6.954;2023-05-10T08:35:38;12.10;;;10.47;;
817;SDS011;391;51.052;6.954;2023-05-10T08:37:41;11.43;;;9.30;;
817;SDS011;391;51.052;6.954;2023-05-10T08:39:45;11.37;;;8.83;;
817;SDS011;391;51.052;6.954;2023-05-10T08:41:51;10.60;;;9.33;;
817;SDS011;391;51.052;6.954;2023-05-10T08:43:57;10.67;;;9.67;;
817;SDS011;391;51.052;6.954;2023-05-10T08:46:00;15.07;;;9.60;;
817;SDS011;391;51.052;6.954;2023-05-10T08:48:05;11.53;;;9.70;;
817;SDS011;391;51.052;6.954;2023-05-10T08:50:10;14.20;;;10.57;;
817;SDS011;391;51.052;6.954;2023-05-10T08:52:14;12.60;;;10.30;;
817;SDS011;391;51.052;6.954;2023-05-10T08:54:19;14.30;;;11.10;;
817;SDS011;391;51.052;6.954;2023-05-10T08:56:22;14.73;;;12.13;;
817;SDS011;391;51.052;6.954;2023-05-10T08:58:28;14.07;;;11.17;;
817;SDS011;391;51.052;6.954;2023-05-10T09:00:32;16.20;;;11.90;;
817;SDS011;391;51.052;6.954;2023-05-10T09:02:36;14.13;;;10.20;;
817;SDS011;391;51.052;6.954;2023-05-10T09:04:40;12.23;;;10.20;;
817;SDS011;391;51.052;6.954;2023-05-10T09:06:43;12.40;;;11.10;;
817;SDS011;391;51.052;6.954;2023-05-10T09:08:47;15.20;;;11.20;;
817;SDS011;391;51.052;6.954;2023-05-10T09:10:50;16.30;;;13.43;;
817;SDS011;391;51.052;6.954;2023-05-10T09:12:55;17.50;;;13.10;;
817;SDS011;391;51.052;6.954;2023-05-10T09:15:02;15.63;;;11.83;;
817;SDS011;391;51.052;6.954;2023-05-10T09:17:07;14.70;;;11.43;;
817;SDS011;391;51.052;6.954;2023-05-10T09:19:12;16.30;;;12.00;;
817;SDS011;391;51.052;6.954;2023-05-10T09:21:16;17.17;;;13.13;;
817;SDS011;391;51.052;6.954;2023-05-10T09:23:20;16.93;;;12.83;;
817;SDS011;391;51.052;6.954;2023-05-10T09:25:23;17.63;;;13.47;;
817;SDS011;391;51.052;6.954;2023-05-10T09:27:27;24.90;;;14.73;;
817;SDS011;391;51.052;6.954;2023-05-10T09:29:38;18.63;;;14.30;;
817;SDS011;391;51.052;6.954;2023-05-10T09:31:47;22.63;;;14.30;;
817;SDS011;391;51.052;6.954;2023-05-10T09:33:53;20.13;;;13.70;;
817;SDS011;391;51.052;6.954;2023-05-10T09:36:05;18.43;;;14.57;;
817;SDS011;391;51.052;6.954;2023-05-10T09:38:10;22.17;;;15.27;;
817;SDS011;391;51.052;6.954;2023-05-10T09:40:13;20.40;;;14.70;;
817;SDS011;391;51.052;6.954;2023-05-10T09:42:18;19.20;;;16.03;;
817;SDS011;391;51.052;6.954;2023-05-10T09:44:21;21.50;;;15.57;;
817;SDS011;391;51.052;6.954;2023-05-10T09:46:24;18.60;;;14.50;;
817;SDS011;391;51.052;6.954;2023-05-10T09:48:29;16.80;;;13.43;;
817;SDS011;391;51.052;6.954;2023-05-10T09:50:33;21.30;;;16.03;;
817;SDS011;391;51.052;6.954;2023-05-10T09:52:45;19.67;;;16.13;;
817;SDS011;391;51.052;6.954;2023-05-10T09:54:52;16.83;;;14.27;;
817;SDS011;391;51.052;6.954;2023-05-10T09:56:56;18.20;;;15.07;;
817;SDS011;391;51.052;6.954;2023-05-10T09:59:02;16.90;;;14.50;;
817;SDS011;391;51.052;6.954;2023-05-10T10:01:10;20.80;;;14.80;;
817;SDS011;391;51.052;6.954;2023-05-10T10:03:14;21.53;;;15.33;;
817;SDS011;391;51.052;6.954;2023-05-10T10:05:19;19.80;;;15.67;;
817;SDS011;391;51.052;6.954;2023-05-10T10:07:23;20.20;;;15.27;;
817;SDS011;391;51.052;6.954;2023-05-10T10:09:28;20.17;;;15.33;;
817;SDS011;391;51.052;6.954;2023-05-10T10:11:31;17.00;;;14.50;;
817;SDS011;391;51.052;6.954;2023-05-10T10:13:36;17.40;;;13.63;;
817;SDS011;391;51.052;6.954;2023-05-10T10:15:40;19.53;;;14.87;;
817;SDS011;391;51.052;6.954;2023-05-10T10:17:46;21.87;;;14.10;;
817;SDS011;391;51.052;6.954;2023-05-10T10:19:50;16.33;;;12.90;;
817;SDS011;391;51.052;6.954;2023-05-10T10:21:55;16.43;;;14.03;;
817;SDS011;391;51.052;6.954;2023-05-10T10:24:00;16.07;;;13.17;;
817;SDS011;391;51.052;6.954;2023-05-10T10:26:07;16.00;;;13.73;;
817;SDS011;391;51.052;6.954;2023-05-10T10:28:16;19.20;;;14.27;;
817;SDS011;391;51.052;6.954;2023-05-10T10:30:30;19.63;;;13.77;;
817;SDS011;391;51.052;6.954;2023-05-10T10:32:42;14.07;;;11.93;;
817;SDS011;391;51.052;6.954;2023-05-10T10:35:11;17.80;;;13.20;;
817;SDS011;391;51.052;6.954;2023-05-10T10:37:16;14.57;;;12.30;;
817;SDS011;391;51.052;6.954;2023-05-10T10:39:19;16.47;;;13.13;;
817;SDS011;391;51.052;6.954;2023-05-10T10:41:27;16.20;;;12.53;;
817;SDS011;391;51.052;6.954;2023-05-10T10:43:32;15.00;;;12.90;;
817;SDS011;391;51.052;6.954;2023-05-10T10:45:38;12.80;;;11.60;;
817;SDS011;391;51.052;6.954;2023-05-10T10:47:43;11.90;;;10.43;;
817;SDS011;391;51.052;6.954;2023-05-10T10:49:48;15.33;;;13.30;;
817;SDS011;391;51.052;6.954;2023-05-10T10:54:21;14.43;;;11.87;;
817;SDS011;391;51.052;6.954;2023-05-10T10:56:30;16.50;;;13.47;;
817;SDS011;391;51.052;6.954;2023-05-10T10:58:36;14.03;;;11.37;;
817;SDS011;391;51.052;6.954;2023-05-10T11:00:41;17.50;;;12.03;;
817;SDS011;391;51.052;6.954;2023-05-10T11:02:46;14.23;;;12.70;;
817;SDS011;391;51.052;6.954;2023-05-10T11:04:51;16.40;;;12.30;;
817;SDS011;391;51.052;6.954;2023-05-10T11:09:20;15.73;;;12.13;;
817;SDS011;391;51.052;6.954;2023-05-10T11:11:27;13.43;;;11.90;;
817;SDS011;391;51.052;6.954;2023-05-10T11:13:32;17.10;;;12.97;;
817;SDS011;391;51.052;6.954;2023-05-10T11:15:38;15.40;;;11.23;;
817;SDS011;391;51.052;6.954;2023-05-10T11:17:42;13.13;;;11.63;;
817;SDS011;391;51.052;6.954;2023-05-10T11:20:07;12.00;;;8.90;;
817;SDS011;391;51.052;6.954;2023-05-10T11:22:12;13.30;;;11.60;;
817;SDS011;391;51.052;6.954;2023-05-10T11:24:16;12.57;;;11.27;;
817;SDS011;391;51.052;6.954;2023-05-10T11:26:22;12.53;;;10.20;;
817;SDS011;391;51.052;6.954;2023-05-10T11:28:27;13.17;;;10.00;;
817;SDS011;391;51.052;6.954;2023-05-10T11:30:31;11.60;;;8.67;;
817;SDS011;391;51.052;6.954;2023-05-10T11:32:35;10.50;;;8.93;;
817;SDS011;391;51.052;6.954;2023-05-10T11:34:40;14.00;;;8.90;;
817;SDS011;391;51.052;6.954;2023-05-10T11:36:43;11.40;;;8.10;;
817;SDS011;391;51.052;6.954;2023-05-10T11:38:54;10.57;;;7.63;;
817;SDS011;391;51.052;6.954;2023-05-10T11:40:58;8.80;;;8.00;;
817;SDS011;391;51.052;6.954;2023-05-10T11:43:03;8.07;;;6.70;;
817;SDS011;391;51.052;6.954;2023-05-10T11:45:07;8.90;;;7.13;;
817;SDS011;391;51.052;6.954;2023-05-10T11:47:13;8.10;;;7.03;;
817;SDS011;391;51.052;6.954;2023-05-10T11:49:17;8.60;;;7.67;;
817;SDS011;391;51.052;6.954;2023-05-10T11:51:21;8.10;;;7.20;;
817;SDS011;391;51.052;6.954;2023-05-10T11:53:26;8.87;;;7.73;;
817;SDS011;391;51.052;6.954;2023-05-10T11:55:32;8.63;;;7.43;;
817;SDS011;391;51.052;6.954;2023-05-10T11:57:36;9.57;;;8.60;;
817;SDS011;391;51.052;6.954;2023-05-10T11:59:44;7.87;;;6.70;;
817;SDS011;391;51.052;6.954;2023-05-10T12:01:48;8.63;;;7.23;;
817;SDS011;391;51.052;6.954;2023-05-10T12:03:52;8.80;;;7.40;;
817;SDS011;391;51.052;6.954;2023-05-10T12:05:57;7.50;;;6.40;;
817;SDS011;391;51.052;6.954;2023-05-10T12:08:11;5.97;;;5.37;;
817;SDS011;391;51.052;6.954;2023-05-10T12:10:15;6.87;;;5.10;;
817;SDS011;391;51.052;6.954;2023-05-10T12:12:20;7.43;;;6.73;;
817;SDS011;391;51.052;6.954;2023-05-10T12:14:23;6.20;;;5.50;;
817;SDS011;391;51.052;6.954;2023-05-10T12:16:29;5.70;;;5.10;;
817;SDS011;391;51.052;6.954;2023-05-10T12:18:33;4.53;;;4.13;;
817;SDS011;391;51.052;6.954;2023-05-10T12:20:36;7.50;;;5.30;;
817;SDS011;391;51.052;6.954;2023-05-10T12:22:40;5.50;;;5.00;;
817;SDS011;391;51.052;6.954;2023-05-10T12:24:45;5.63;;;5.03;;
817;SDS011;391;51.052;6.954;2023-05-10T12:26:49;4.77;;;4.23;;
817;SDS011;391;51.052;6.954;2023-05-10T12:28:53;4.80;;;4.33;;
817;SDS011;391;51.052;6.954;2023-05-10T12:30:57;5.43;;;4.60;;
817;SDS011;391;51.052;6.954;2023-05-10T12:33:09;4.00;;;3.30;;
817;SDS011;391;51.052;6.954;2023-05-10T12:35:13;5.60;;;4.17;;
817;SDS011;391;51.052;6.954;2023-05-10T12:37:17;4.10;;;3.70;;
817;SDS011;391;51.052;6.954;2023-05-10T12:39:20;4.53;;;4.13;;
817;SDS011;391;51.052;6.954;2023-05-10T12:41:23;4.43;;;3.80;;
817;SDS011;391;51.052;6.954;2023-05-10T12:43:27;3.20;;;2.83;;
817;SDS011;391;51.052;6.954;2023-05-10T12:45:31;3.23;;;2.60;;
817;SDS011;391;51.052;6.954;2023-05-10T12:47:35;3.27;;;2.97;;
817;SDS011;391;51.052;6.954;2023-05-10T12:49:40;4.20;;;3.40;;
817;SDS011;391;51.052;6.954;2023-05-10T12:51:44;2.80;;;2.60;;
817;SDS011;391;51.052;6.954;2023-05-10T12:53:47;4.23;;;3.30;;
817;SDS011;391;51.052;6.954;2023-05-10T12:55:50;2.70;;;2.50;;
817;SDS011;391;51.052;6.954;2023-05-10T12:57:54;3.43;;;3.10;;
817;SDS011;391;51.052;6.954;2023-05-10T12:59:57;3.73;;;3.30;;
817;SDS011;391;51.052;6.954;2023-05-10T13:02:01;3.00;;;2.80;;
817;SDS011;391;51.052;6.954;2023-05-10T13:04:04;3.43;;;3.13;;
817;SDS011;391;51.052;6.954;2023-05-10T13:06:09;3.13;;;2.83;;
817;SDS011;391;51.052;6.954;2023-05-10T13:08:12;5.30;;;3.00;;
817;SDS011;391;51.052;6.954;2023-05-10T13:10:16;3.53;;;3.23;;
817;SDS011;391;51.052;6.954;2023-05-10T13:12:20;3.83;;;3.43;;
817;SDS011;391;51.052;6.954;2023-05-10T13:14:24;3.27;;;2.97;;
817;SDS011;391;51.052;6.954;2023-05-10T13:16:28;2.80;;;2.60;;
817;SDS011;391;51.052;6.954;2023-05-10T13:18:31;2.47;;;2.27;;
817;SDS011;391;51.052;6.954;2023-05-10T13:20:35;2.60;;;2.40;;